Archival Weather

NSFA McMurdo Sound

NSFA McMurdo Sound, Antarctica (NZCM)

Report from: Tuesday, September 19, 2023 4:55 AM UTC
Current time: Tuesday, July 16, 2024 2:37 PM UTC

Current weather – Weather history – Daily summaries
Weather forecast

Temperature-14.0°C (6.8°F)
Wind chill-24.7°C (-12.4°F)
Dew point-18.6°C (-1.5°F)
Winds 16 kts (8.2 m/s, 18.4 mph) Northeast (40°)
Wind gusts 23 kts (11.8 m/s, 26.5 mph)
Visibility6.2 mi. (10 km)
Clouds Ceiling: Overcast 6,000 ft. (1,829 m)
Altimeter28.93 in.Hg (980 mB)
Relative humidity68 %
Density altitude-5,892 ft. (-1,796 m)
Sea-level pressure108.0 kPa (1080 mB, 31.90 in.Hg)
Remarks Fully automated report
Automated weather observing station with precipitation discriminator
Flight conditions Visual Meteorological Conditions
Raw dataNZCM 190455Z AUTO 04016G23KT 9999 OVC060 M14/M19 A2893 RMK AO2 SLP802 T11401186
An error has occurred. This application may no longer respond until reloaded. Reload 🗙